• Join FlightAware (Why Join?)
  • Login
  • US Flag GB Flag 
18:47 EDT


 

Airport Tracker/Info


-or-


 

Live Flight TrackerFlight Track Log ✈ SWA3013 ✈ 03-Feb-2013 ✈ KDEN - KEWR

Flight Track Log - Related Links

Times and Time Zones

All times are in EST time to prevent confusion due to time zone crossing. See the SWA3013 flight status page for this flight to view local times or setup timezone preferences in your user account.

Time Position Orientation Groundspeed Altitude Reporting Facility
EST Latitude Longitude Course Direction KTS MPH feet Rate Location/Type
19:52 39.8833 -104.5833 90° East 191 220 6,700  Level Denver TRACON
19:53 39.8833 -104.5000 90° East 251 289 10,000 2,880 Climbing Denver TRACON
19:54 39.8833 -104.3833 90° East 316 364 12,500 2,760 Climbing Denver TRACON
19:55 39.8778 -104.3061 95° East 342 394 14,600 3,000 Climbing Denver Center
19:56 39.8792 -104.1783 89° East 354 407 18,200 2,880 Climbing Denver Center
19:57 39.8800 -104.0306 90° East 382 440 21,100 2,820 Climbing Denver Center
19:58 39.8814 -103.8489 89° East 410 472 24,000 2,220 Climbing Denver Center
19:59 39.8839 -103.6981 89° East 424 488 25,800 1,740 Climbing Denver Center
20:00 39.8978 -103.5325 84° East 458 527 27,600 1,620 Climbing Denver Center
20:01 39.9100 -103.3567 85° East 479 551 29,200 1,560 Climbing Denver Center
20:02 39.9225 -103.1750 85° East 495 570 30,900 1,500 Climbing Denver Center
20:03 39.9350 -102.9881 85° East 508 585 32,400 1,020 Climbing Denver Center
20:04 39.9461 -102.8264 85° East 526 605 33,000 900 Climbing Denver Center
20:05 39.9608 -102.5833 85° East 539 620 34,300 1,500 Climbing Denver Center
20:06 39.9744 -102.3689 85° East 535 616 36,100 1,560 Climbing Denver Center
20:07 39.9989 -102.1836 80° East 544 626 37,600 1,260 Climbing Denver Center
20:09 40.0264 -101.9744 80° East 526 605 39,000 600 Climbing Denver Center
20:10 40.0547 -101.7689 80° East 520 598 39,000  Level Denver Center
20:11 40.0817 -101.5628 80° East 518 596 39,000  Level Denver Center
20:12 40.1006 -101.4150 80° East 519 597 39,000  Level Denver Center
20:13 40.1317 -101.1744 80° East 526 605 39,000  Level Denver Center
20:14 40.1539 -100.9956 81° East 525 604 39,000  Level Denver Center
20:15 40.1839 -100.7569 81° East 526 605 39,000  Level Denver Center
20:16 40.2181 -100.5211 79° East 522 601 39,000  Level Denver Center
20:17 40.2544 -100.3500 74° East 513 590 39,000  Level Denver Center
20:18 40.3014 -100.1169 75° East 520 598 39,000  Level Denver Center
20:19 40.3361 -99.9417 75° East 521 600 39,000  Level Denver Center
20:20 40.3767 -99.7350 75° East 522 601 39,000  Level Denver Center
20:21 40.4061 -99.5858 75° East 526 605 39,000  Level Denver Center
20:23 40.4425 -99.4014 75° East 525 604 39,000  Level Denver Center
20:24 40.4856 -99.1778 76° East 528 608 39,000  Level Denver Center
20:25 40.5208 -98.9922 76° East 527 606 39,000  Level Denver Center
20:25 40.5556 -98.8069 76° East 529 609 39,000  Level Minneapolis Center
20:26 40.5906 -98.6206 76° East 529 609 39,000  Level Minneapolis Center
20:28 40.6256 -98.4339 76° East 529 609 39,000  Level Minneapolis Center
20:29 40.6597 -98.2492 76° East 526 605 39,000  Level Minneapolis Center
20:30 40.6925 -98.0639 77° East 524 603 39,000  Level Minneapolis Center
20:31 40.7328 -97.8406 77° East 524 603 39,000  Level Minneapolis Center
20:32 40.7653 -97.6558 77° East 522 601 39,000  Level Minneapolis Center
20:33 40.7978 -97.4697 77° East 521 600 39,000  Level Minneapolis Center
20:34 40.8278 -97.3047 76° East 522 601 39,000  Level Minneapolis Center
20:35 40.8733 -97.0436 77° East 523 602 39,000  Level Minneapolis Center
20:36 40.9039 -96.8544 78° East 527 606 39,000  Level Minneapolis Center
20:37 40.9339 -96.6656 78° East 527 606 39,000  Level Minneapolis Center
20:38 40.9608 -96.4756 79° East 528 608 39,000  Level Minneapolis Center
20:39 40.9867 -96.2864 80° East 528 608 39,000  Level Minneapolis Center
20:40 41.0111 -96.0986 80° East 526 605 39,000  Level Minneapolis Center
20:41 41.0367 -95.9128 80° East 522 601 39,000  Level Minneapolis Center
20:42 41.0653 -95.6886 80° East 521 600 39,000  Level Minneapolis Center
20:43 41.0886 -95.5006 81° East 522 601 39,000  Level Minneapolis Center
20:44 41.1131 -95.3122 80° East 522 601 39,000  Level Minneapolis Center
20:45 41.1372 -95.1233 80° East 522 601 39,000  Level Minneapolis Center
20:46 41.1600 -94.9336 81° East 522 601 39,000  Level Minneapolis Center
20:47 41.1831 -94.7444 81° East 522 601 39,000  Level Minneapolis Center
20:48 41.2056 -94.5561 81° East 520 598 39,000  Level Minneapolis Center
20:49 41.2314 -94.3297 81° East 518 596 39,000  Level Minneapolis Center
20:50 41.2503 -94.1628 81° East 517 595 39,000  Level Minneapolis Center
20:51 41.2733 -93.9742 81° East 518 596 39,000  Level Minneapolis Center
20:52 41.2936 -93.7856 82° East 519 597 39,000  Level Minneapolis Center
20:53 41.3192 -93.5561 81° East 522 601 39,000  Level Minneapolis Center
20:54 41.3428 -93.3589 81° East 532 612 39,100 960 Climbing Minneapolis Center
20:55 41.3633 -93.1644 82° East 534 615 41,000 900 Climbing Minneapolis Center
20:56 41.3836 -92.9772 82° East 522 601 41,000  Level Minneapolis Center
20:57 41.4039 -92.7900 82° East 515 593 41,000  Level Minneapolis Center
20:58 41.4228 -92.6017 82° East 515 593 41,000  Level Minneapolis Center
20:59 41.4306 -92.5239 82° East 517 595 41,000  Level Chicago Center
21:00 41.4486 -92.3456 82° East 520 598 41,000  Level Chicago Center
21:02 41.4831 -91.9928 82° East 519 597 41,000  Level Minneapolis Center
21:02 41.4847 -91.9686 85° East 519 597 41,000  Level Chicago Center
21:03 41.5069 -91.7400 83° East 521 600 41,000  Level Chicago Center
21:04 41.5208 -91.5492 84° East 522 601 41,000  Level Chicago Center
21:05 41.5250 -91.3567 88° East 523 602 41,000  Level Chicago Center
21:06 41.5281 -91.1642 89° East 524 603 41,000  Level Chicago Center
21:07 41.5319 -90.9731 88° East 522 601 41,000  Level Chicago Center
21:08 41.5347 -90.7831 89° East 519 597 41,000  Level Chicago Center
21:09 41.5375 -90.5592 89° East 518 596 41,000  Level Chicago Center
21:10 41.5397 -90.3669 89° East 517 595 41,000  Level Chicago Center
21:11 41.5425 -90.1767 89° East 513 590 41,000  Level Chicago Center
21:12 41.5439 -89.9842 89° East 515 593 41,000  Level Chicago Center
21:13 41.5456 -89.7914 89° East 517 595 41,000  Level Chicago Center
21:14 41.5472 -89.5986 89° East 517 595 41,000  Level Chicago Center
21:15 41.5494 -89.3961 89° East 517 595 41,000  Level Chicago Center
21:16 41.5492 -89.2044 90° East 518 596 41,000  Level Chicago Center
21:17 41.5483 -89.0125 90° East 518 596 41,000  Level Chicago Center
21:18 41.5481 -88.8200 90° East 520 598 41,000  Level Chicago Center
21:19 41.5483 -88.5914 90° East 518 596 41,000  Level Chicago Center
21:20 41.5464 -88.3994 91° East 518 596 41,000  Level Chicago Center
21:21 41.5581 -88.2114 85° East 508 585 41,000  Level Chicago Center
21:22 41.5814 -88.0225 81° East 505 581 41,000  Level Chicago Center
21:23 41.6039 -87.8325 81° East 509 586 41,000  Level Chicago Center
21:24 41.6244 -87.6433 82° East 512 589 41,000  Level Chicago Center
21:25 41.6464 -87.4547 81° East 513 590 41,000  Level Chicago Center
21:26 41.6675 -87.2667 81° East 514 592 41,000  Level Chicago Center
21:27 41.6878 -87.0806 82° East 509 586 41,000  Level Chicago Center
21:28 41.7081 -86.8967 82° East 504 580 41,000  Level Chicago Center
21:29 41.7292 -86.6872 82° East 503 579 41,000  Level Chicago Center
21:30 41.7492 -86.5022 82° East 503 579 41,000  Level Chicago Center
21:32 41.7675 -86.3175 82° East 502 578 41,000  Level Chicago Center
21:33 41.7872 -86.1336 82° East 501 577 41,000  Level Chicago Center
21:34 41.8064 -85.9489 82° East 500 575 41,000  Level Chicago Center
21:35 41.8256 -85.7631 82° East 500 575 41,000  Level Chicago Center
21:36 41.8439 -85.5758 82° East 501 577 41,000  Level Chicago Center
21:37 41.8619 -85.3911 82° East 497 572 41,000  Level Chicago Center
21:38 41.8800 -85.2022 83° East 499 574 41,000  Level Chicago Center
21:39 41.9017 -85.0083 81° East 499 574 41,000  Level Cleveland Center
21:40 41.9214 -84.8200 82° East 499 574 41,000  Level Cleveland Center
21:41 41.9403 -84.6369 82° East 499 574 41,000  Level Cleveland Center
21:42 41.9597 -84.4425 82° East 504 580 41,000  Level Cleveland Center
21:43 41.9722 -84.2533 85° East 504 580 41,000  Level Cleveland Center
21:44 41.9906 -84.0644 82° East 504 580 41,000  Level Cleveland Center
21:45 42.0086 -83.8753 83° East 504 580 41,000  Level Cleveland Center
21:46 42.0242 -83.6886 84° East 504 580 41,000  Level Cleveland Center
21:47 42.0417 -83.5022 83° East 504 580 41,000  Level Cleveland Center
21:48 42.0342 -83.2950 93° East 497 572 41,000  Level Cleveland Center
21:49 42.0214 -83.1267 96° East 502 578 41,000  Level Cleveland Center
21:50 42.0067 -82.9333 96° East 502 578 41,000  Level Cleveland Center
21:51 41.9917 -82.7483 96° East 502 578 41,000  Level Cleveland Center
21:52 41.9764 -82.5578 96° East 502 578 41,000  Level Cleveland Center
21:53 41.9606 -82.3675 96° East 502 578 41,000  Level Cleveland Center
21:54 41.9467 -82.1939 96° East 510 587 41,000  Level Cleveland Center
21:55 41.9283 -81.9897 97° East 510 587 41,000  Level Cleveland Center
21:56 41.9139 -81.7997 96° East 510 587 41,000  Level Cleveland Center
21:57 41.8969 -81.6097 97° East 510 587 41,000  Level Cleveland Center
21:58 41.8797 -81.4225 97° East 510 587 41,000  Level Cleveland Center
21:59 41.8603 -81.2189 97° East 505 581 41,000  Level Cleveland Center
22:00 41.8425 -81.0292 97° East 505 581 41,000  Level Cleveland Center
22:01 41.8242 -80.8339 97° East 505 581 41,000  Level Cleveland Center
22:02 41.8058 -80.6500 98° East 505 581 41,000  Level Cleveland Center
22:03 41.7869 -80.4578 97° East 505 581 41,000  Level Cleveland Center
22:04 41.7700 -80.2742 97° East 500 575 41,000  Level Cleveland Center
22:05 41.7483 -80.0878 99° East 505 581 41,000  Level Cleveland Center
22:06 41.7286 -79.8958 98° East 505 581 41,000  Level Cleveland Center
22:07 41.7131 -79.7292 97° East 505 581 41,000  Level Cleveland Center
22:08 41.6903 -79.5208 98° East 505 581 41,000  Level Cleveland Center
22:09 41.6717 -79.3350 98° East 505 581 41,000  Level Cleveland Center
22:10 41.6508 -79.1492 98° East 500 575 41,000  Level Cleveland Center
22:11 41.6297 -78.9636 99° East 500 575 41,000 -600 Level Cleveland Center
22:12 41.6081 -78.7781 99° East 500 575 39,900 -1,020 Descending Cleveland Center
22:13 41.5708 -78.4550 99° East 518 596 38,200 -960 Descending New York Center
22:14 41.5489 -78.2750 99° East 491 565 37,300 -960 Descending New York Center
22:15 41.5269 -78.0922 99° East 491 565 36,400 -960 Descending New York Center
22:16 41.5050 -77.9069 99° East 496 571 35,400 -960 Descending New York Center
22:17 41.4783 -77.7214 101° East 510 587 34,500 -960 Descending New York Center
22:18 41.4497 -77.5331 101° East 510 587 33,500 -960 Descending New York Center
22:19 41.4233 -77.3697 102° East 510 587 32,700 -900 Descending New York Center
22:20 41.3964 -77.1789 101° East 515 593 31,700 -840 Descending New York Center
22:21 41.3708 -76.9942 100° East 515 593 31,000 -360 Descending New York Center
22:22 41.3428 -76.8092 101° East 515 593 31,000 -960 Level New York Center
22:23 41.2997 -76.6311 108° East 515 593 29,100 -2,460 Descending New York Center
22:24 41.2519 -76.4558 110° East 510 587 26,100 -3,180 Descending New York Center
22:25 41.2006 -76.2667 110° East 503 579 22,700 -3,300 Descending New York Center
22:26 41.1542 -76.0978 110° East 496 571 19,700 -1,920 Descending New York Center
22:27 41.1114 -75.9344 109° East 477 549 19,000 -1,380 Descending New York Center
22:28 41.0681 -75.7744 110° East 465 535 17,000 -2,400 Descending New York Center
22:29 41.0319 -75.6425 110° East 445 512 14,200 -2,280 Descending New York Center
22:30 40.9917 -75.5075 112° Southeast 408 470 12,500 -1,380 Descending New York Center
22:31 40.9553 -75.3706 109° East 373 429 11,500 -1,020 Descending New York Center
22:32 40.9242 -75.2639 111° Southeast 348 400 10,500 -780 Descending New York Center
22:33 40.8947 -75.1578 110° East 322 371 10,000 -840 Descending New York Center
22:34 40.8867 -75.0364 95° East 296 341 8,900 -1,020 Descending New York Center
22:35 40.8822 -74.9236 93° East 296 341 8,000 -960 Descending New York Center
22:36 40.8778 -74.8192 93° East 312 359 7,000 -960 Descending New York Center
22:37 40.8733 -74.6981 93° East 312 359 6,100 -900 Descending New York Center
22:38 40.8703 -74.6017 92° East 307 353 5,200 -1,020 Descending New York Center
22:39 40.8667 -74.5333 94° East 289 333 4,600 -1,080 Descending New York TRACON
22:40 40.8667 -74.4167 90° East 284 327 3,500 -840 Descending New York TRACON
22:41 40.8667 -74.3333 90° East 273 314 3,000 -300 Descending New York TRACON
22:42 40.8500 -74.2333 102° East 238 274 3,000 -240 Level New York TRACON
22:43 40.8500 -74.1500 90° East 226 260 2,600 -300 Descending New York TRACON
22:44 40.8167 -74.1167 143° Southeast 192 221 2,400 -660 Descending New York TRACON
22:45 40.7667 -74.1167 180° South 162 186 1,300 -840 Descending New York TRACON
22:46 40.7333 -74.1500 217° Southwest 118 136 700 -600 Descending New York TRACON
22:49 40.6925 -74.1687 174° South  Level Estimated
22:56 40.6925 -74.1687 174° South  Level Estimated